Time;durP1;ratioP1;P1;durP2;ratioP2;P2;SDS_P1;SDS_P2;PMS_P1;PMS_P2;Temp;Humidity;BMP_temperature;BMP_pressure;BME280_temperature;BME280_humidity;BME280_pressure;Samples;Min_cycle;Max_cycle;Signal;HPM_P1;HPM_P2
2022/04/09 00:02:25;;;;;;;1.43;1.33;;;;;5.30;99576.00;;;;5016646;28;20762;-66
2022/04/09 00:05:13;;;;;;;1.50;1.40;;;;;5.30;99585.00;;;;5016076;28;20599;-64
2022/04/09 00:07:59;;;;;;;2.50;1.77;;;;;5.30;99581.00;;;;5023156;28;20858;-66
2022/04/09 00:10:45;;;;;;;1.50;1.37;;;;;5.30;99585.00;;;;5022633;28;20233;-69
2022/04/09 00:13:31;;;;;;;4.17;1.80;;;;;5.20;99590.00;;;;5018674;28;20749;-66
2022/04/09 00:16:18;;;;;;;1.57;1.47;;;;;5.20;99593.00;;;;5012717;28;20234;-67
2022/04/09 00:19:06;;;;;;;2.00;1.40;;;;;5.00;99614.00;;;;5008357;28;20714;-64
2022/04/09 00:21:52;;;;;;;1.60;1.33;;;;;5.00;99610.00;;;;5011454;28;20380;-65
2022/04/09 00:24:38;;;;;;;3.73;1.40;;;;;5.10;99611.00;;;;5014377;28;20603;-68
2022/04/09 00:27:25;;;;;;;4.67;1.30;;;;;5.10;99617.00;;;;5007596;28;20229;-65
2022/04/09 00:30:12;;;;;;;5.27;1.50;;;;;5.10;99621.00;;;;4997004;28;20249;-68
2022/04/09 00:32:58;;;;;;;3.23;1.37;;;;;5.00;99632.00;;;;5003887;28;20242;-66
2022/04/09 00:35:45;;;;;;;2.47;1.33;;;;;4.90;99638.00;;;;5023133;28;20248;-66
2022/04/09 00:38:31;;;;;;;2.63;1.40;;;;;5.00;99642.00;;;;5018695;28;20283;-66
2022/04/09 00:41:18;;;;;;;3.07;1.67;;;;;4.90;99654.00;;;;5013421;28;20232;-68
2022/04/09 00:44:15;;;;;;;2.30;1.30;;;;;4.80;99643.00;;;;5021275;28;20255;-68
2022/04/09 00:47:01;;;;;;;2.37;1.40;;;;;4.80;99656.00;;;;5019587;28;20241;-66
2022/04/09 00:49:47;;;;;;;4.80;1.70;;;;;4.80;99663.00;;;;5020896;28;20372;-66
2022/04/09 00:52:38;;;;;;;3.07;1.67;;;;;4.70;99668.00;;;;5021793;28;20597;-66
2022/04/09 00:58:26;;;;;;;2.10;1.70;;;;;4.70;99684.00;;;;5016669;28;20291;-67
2022/04/09 01:01:13;;;;;;;3.17;1.50;;;;;4.80;99681.00;;;;5022709;28;20272;-64
2022/04/09 01:04:00;;;;;;;3.13;1.30;;;;;4.90;99678.00;;;;5025387;28;20232;-67
2022/04/09 01:06:47;;;;;;;1.57;1.30;;;;;4.80;99691.00;;;;5018308;28;20237;-67
2022/04/09 01:09:35;;;;;;;3.03;2.00;;;;;4.90;99699.00;;;;5023456;28;20236;-68
2022/04/09 01:12:21;;;;;;;2.30;1.60;;;;;4.90;99695.00;;;;5019570;28;20233;-68
2022/04/09 01:15:09;;;;;;;1.67;1.50;;;;;4.90;99702.00;;;;5015040;28;20232;-67
2022/04/09 01:17:56;;;;;;;3.30;1.60;;;;;5.00;99715.00;;;;5024039;28;20315;-69
2022/04/09 01:20:42;;;;;;;3.77;1.80;;;;;5.10;99716.00;;;;5025042;28;20233;-68
2022/04/09 01:23:32;;;;;;;2.37;1.70;;;;;5.20;99726.00;;;;5026113;28;20241;-66
2022/04/09 01:26:19;;;;;;;4.37;1.80;;;;;5.10;99728.00;;;;5025947;28;20233;-68
2022/04/09 01:29:05;;;;;;;2.13;1.90;;;;;5.30;99733.00;;;;5022592;28;20221;-68
2022/04/09 01:31:52;;;;;;;3.83;1.63;;;;;5.20;99738.00;;;;5017552;28;20307;-66
2022/04/09 01:37:34;;;;;;;4.97;1.67;;;;;5.20;99741.00;;;;5431302;23;20229;-67
2022/04/09 01:40:22;;;;;;;3.47;1.80;;;;;5.30;99754.00;;;;4935171;28;20235;-67
2022/04/09 01:43:09;;;;;;;7.67;2.00;;;;;5.20;99754.00;;;;4929442;28;20271;-67
2022/04/09 01:45:55;;;;;;;6.60;2.00;;;;;5.10;99760.00;;;;4931311;28;20355;-68
2022/04/09 01:48:43;;;;;;;6.60;2.50;;;;;5.10;99764.00;;;;4929217;28;20827;-68
2022/04/09 01:51:29;;;;;;;12.67;2.70;;;;;5.20;99775.00;;;;4925686;28;20399;-66
2022/04/09 01:54:15;;;;;;;6.27;1.83;;;;;5.10;99773.00;;;;4912810;29;20236;-67
2022/04/09 01:57:03;;;;;;;3.13;1.90;;;;;5.10;99783.00;;;;4910592;29;20236;-67
2022/04/09 01:59:50;;;;;;;8.43;2.60;;;;;5.10;99791.00;;;;4911369;29;20295;-67
2022/04/09 02:02:36;;;;;;;5.27;1.90;;;;;5.10;99806.00;;;;4911112;29;20729;-68
2022/04/09 02:05:23;;;;;;;6.23;2.03;;;;;5.20;99820.00;;;;4911367;29;20252;-64
2022/04/09 02:08:09;;;;;;;6.60;1.90;;;;;5.20;99820.00;;;;4921834;28;20379;-68
2022/04/09 02:10:56;;;;;;;1.30;1.20;;;;;5.20;99810.00;;;;4924078;28;20716;-67
2022/04/09 02:13:43;;;;;;;5.37;2.13;;;;;5.10;99817.00;;;;4926251;28;20251;-67
2022/04/09 02:16:30;;;;;;;2.53;1.90;;;;;5.10;99809.00;;;;4929044;28;20241;-66
2022/04/09 02:19:17;;;;;;;3.73;1.57;;;;;5.00;99813.00;;;;4923913;28;20240;-67
2022/04/09 02:22:04;;;;;;;3.87;1.70;;;;;5.00;99818.00;;;;4921311;28;20232;-66
2022/04/09 02:24:50;;;;;;;2.30;1.57;;;;;5.00;99829.00;;;;4924953;28;20244;-67
2022/04/09 02:27:37;;;;;;;4.73;2.13;;;;;5.00;99823.00;;;;4916425;29;20240;-69
2022/04/09 02:30:24;;;;;;;4.33;2.20;;;;;4.90;99829.00;;;;4911268;29;20234;-67
2022/04/09 02:33:11;;;;;;;3.87;2.00;;;;;4.80;99839.00;;;;4918855;28;20809;-69
2022/04/09 02:35:57;;;;;;;4.57;1.97;;;;;4.90;99850.00;;;;4919169;29;20237;-68
2022/04/09 02:38:44;;;;;;;6.03;2.07;;;;;4.90;99824.00;;;;4908270;29;20241;-67
2022/04/09 02:41:30;;;;;;;1.90;1.53;;;;;5.00;99856.00;;;;4910089;29;20298;-67
2022/04/09 02:44:16;;;;;;;9.17;2.30;;;;;5.10;99858.00;;;;4912559;29;20285;-68
2022/04/09 02:47:04;;;;;;;4.20;1.83;;;;;5.10;99862.00;;;;4902007;29;20788;-66
2022/04/09 02:49:50;;;;;;;6.77;2.27;;;;;5.10;99881.00;;;;4913242;29;20313;-66
2022/04/09 02:52:38;;;;;;;4.27;1.77;;;;;5.20;99876.00;;;;4917206;28;20240;-68
2022/04/09 02:55:24;;;;;;;3.53;1.43;;;;;5.30;99885.00;;;;4923646;28;20947;-66
2022/04/09 02:58:10;;;;;;;3.97;1.70;;;;;5.20;99882.00;;;;4921591;28;20235;-67
2022/04/09 03:00:57;;;;;;;6.67;1.93;;;;;5.20;99890.00;;;;4923009;28;20361;-68
2022/04/09 03:03:44;;;;;;;6.70;1.83;;;;;5.30;99887.00;;;;4928169;28;20239;-67
2022/04/09 03:06:30;;;;;;;5.47;1.80;;;;;5.30;99897.00;;;;4921152;28;20309;-67
2022/04/09 03:09:16;;;;;;;6.20;2.10;;;;;5.50;99892.00;;;;4922171;28;20225;-66
2022/04/09 03:12:04;;;;;;;7.13;2.07;;;;;5.50;99905.00;;;;4928519;28;20232;-67
2022/04/09 03:14:50;;;;;;;2.83;1.80;;;;;5.30;99906.00;;;;4917630;28;20865;-67
2022/04/09 03:17:36;;;;;;;4.77;2.23;;;;;5.30;99899.00;;;;4926863;28;20454;-67
2022/04/09 03:20:24;;;;;;;4.50;1.67;;;;;5.20;99918.00;;;;4925147;28;20731;-69
2022/04/09 03:23:11;;;;;;;4.73;1.77;;;;;5.10;99919.00;;;;4921088;28;20593;-67
2022/04/09 03:25:57;;;;;;;4.87;1.80;;;;;5.10;99930.00;;;;4926466;28;20704;-67
2022/04/09 03:28:44;;;;;;;3.73;2.03;;;;;5.00;99931.00;;;;4927821;28;20615;-69
2022/04/09 03:31:30;;;;;;;8.47;1.53;;;;;5.00;99936.00;;;;4925886;28;20228;-69
2022/04/09 03:34:17;;;;;;;5.07;1.63;;;;;4.90;99932.00;;;;4920065;28;20372;-68
2022/04/09 03:37:05;;;;;;;2.93;1.47;;;;;4.90;99936.00;;;;4919888;28;20760;-69
2022/04/09 03:39:57;;;;;;;5.63;2.30;;;;;4.90;99948.00;;;;4925008;28;20700;-68
2022/04/09 03:42:43;;;;;;;3.90;1.97;;;;;5.00;99949.00;;;;4908576;29;20237;-68
2022/04/09 03:45:29;;;;;;;8.27;1.87;;;;;5.00;99959.00;;;;4908797;29;20789;-68
2022/04/09 03:48:16;;;;;;;5.13;1.37;;;;;5.20;99958.00;;;;4920910;28;20586;-68
2022/04/09 03:51:02;;;;;;;3.10;1.80;;;;;5.00;99964.00;;;;4927619;28;20232;-68
2022/04/09 03:53:50;;;;;;;2.60;1.47;;;;;5.10;99971.00;;;;4919379;28;20235;-69
2022/04/09 03:56:37;;;;;;;3.87;1.80;;;;;5.10;99977.00;;;;4921665;28;20620;-69
2022/04/09 03:59:24;;;;;;;6.37;1.77;;;;;5.10;99988.00;;;;4922638;28;20335;-67
2022/04/09 04:02:10;;;;;;;3.90;1.83;;;;;5.10;99990.00;;;;4910794;29;20225;-68
2022/04/09 04:05:01;;;;;;;3.60;1.80;;;;;5.10;99983.00;;;;4908629;29;20309;-70
2022/04/09 04:07:47;;;;;;;1.77;1.27;;;;;5.20;99991.00;;;;4908083;29;20241;-66
2022/04/09 04:10:37;;;;;;;3.63;1.47;;;;;5.20;99989.00;;;;4908763;29;20253;-66
2022/04/09 04:13:23;;;;;;;4.70;1.73;;;;;5.00;100000.00;;;;4908696;29;20229;-66
2022/04/09 04:16:10;;;;;;;2.33;1.37;;;;;4.90;99983.00;;;;4920150;28;20283;-67
2022/04/09 04:18:56;;;;;;;6.43;2.20;;;;;4.80;99983.00;;;;4926340;28;20243;-68
2022/04/09 04:21:42;;;;;;;2.17;1.30;;;;;4.80;99994.00;;;;4916319;28;20245;-67
2022/04/09 04:24:29;;;;;;;2.50;1.60;;;;;4.70;99998.00;;;;4908468;29;20240;-64
2022/04/09 04:27:16;;;;;;;2.73;1.97;;;;;4.80;99998.00;;;;4920519;28;20240;-68
2022/04/09 04:30:04;;;;;;;3.00;1.47;;;;;4.70;100003.00;;;;4927317;28;20232;-69
2022/04/09 04:32:51;;;;;;;4.20;1.63;;;;;4.60;100019.00;;;;4926877;28;20240;-67
2022/04/09 04:35:37;;;;;;;1.03;1.03;;;;;4.60;100024.00;;;;4917357;28;20253;-67
2022/04/09 04:38:24;;;;;;;2.00;1.50;;;;;4.70;100037.00;;;;4927176;28;20234;-69
2022/04/09 04:41:11;;;;;;;5.33;1.80;;;;;4.70;100035.00;;;;4926605;28;20224;-67
2022/04/09 04:43:58;;;;;;;7.90;2.27;;;;;4.60;100046.00;;;;4928499;28;20229;-67
2022/04/09 04:46:44;;;;;;;4.07;1.70;;;;;4.60;100045.00;;;;4910949;29;20240;-68
2022/04/09 04:49:31;;;;;;;7.53;1.80;;;;;4.60;100054.00;;;;4926803;28;20232;-68
2022/04/09 04:52:17;;;;;;;4.83;1.37;;;;;4.60;100057.00;;;;4924667;28;20233;-68
2022/04/09 04:55:04;;;;;;;3.30;1.30;;;;;4.60;100052.00;;;;4923081;28;20748;-69
2022/04/09 04:57:52;;;;;;;4.90;1.77;;;;;4.50;100077.00;;;;4929992;28;20247;-69
2022/04/09 05:00:40;;;;;;;4.03;1.70;;;;;4.50;100036.00;;;;4927601;28;20256;-68
2022/04/09 05:03:27;;;;;;;6.80;1.73;;;;;4.30;100090.00;;;;4928601;28;20725;-67
2022/04/09 05:06:13;;;;;;;4.83;1.83;;;;;4.50;100088.00;;;;4923332;28;20235;-67
2022/04/09 05:08:59;;;;;;;5.03;1.90;;;;;4.60;100091.00;;;;4919441;28;20345;-68
2022/04/09 05:11:46;;;;;;;6.40;1.73;;;;;4.40;100099.00;;;;4927426;28;20385;-67
2022/04/09 05:14:32;;;;;;;1.90;1.20;;;;;4.50;100098.00;;;;4923271;28;20236;-71
2022/04/09 05:17:19;;;;;;;6.27;2.27;;;;;4.60;100108.00;;;;4923721;28;20244;-69
2022/04/09 05:20:08;;;;;;;4.07;1.60;;;;;4.60;100101.00;;;;4920268;28;20320;-68
2022/04/09 05:22:55;;;;;;;5.97;2.03;;;;;4.70;100103.00;;;;4930385;28;20244;-68
2022/04/09 05:25:41;;;;;;;2.90;1.40;;;;;4.70;100109.00;;;;4930515;28;20326;-68
2022/04/09 05:28:28;;;;;;;3.87;1.53;;;;;4.70;100126.00;;;;4930213;28;20357;-67
2022/04/09 05:31:14;;;;;;;5.43;2.20;;;;;4.80;100123.00;;;;4911404;29;20229;-68
2022/04/09 05:34:01;;;;;;;7.40;1.50;;;;;4.90;100119.00;;;;4911943;29;20221;-67
2022/04/09 05:36:48;;;;;;;2.07;1.27;;;;;5.00;100122.00;;;;4910378;29;20241;-69
2022/04/09 05:39:34;;;;;;;1.73;1.20;;;;;5.00;100133.00;;;;4912753;29;20232;-68
2022/04/09 05:42:22;;;;;;;2.60;1.67;;;;;5.10;100136.00;;;;4910705;29;20274;-68
2022/04/09 05:45:10;;;;;;;1.37;1.23;;;;;5.00;100141.00;;;;4914332;29;20228;-70
2022/04/09 05:47:56;;;;;;;6.10;1.87;;;;;5.00;100145.00;;;;4913068;29;20308;-68
2022/04/09 05:50:43;;;;;;;4.60;1.67;;;;;4.90;100159.00;;;;4911222;29;20374;-68
2022/04/09 05:53:30;;;;;;;9.90;1.70;;;;;5.00;100164.00;;;;4923106;28;20237;-69
2022/04/09 05:56:16;;;;;;;2.80;1.80;;;;;5.10;100177.00;;;;4913149;29;20586;-69
2022/04/09 05:59:03;;;;;;;1.47;1.30;;;;;5.10;100170.00;;;;4915941;29;20229;-69
2022/04/09 06:02:05;;;;;;;4.80;1.30;;;;;5.20;100172.00;;;;4913464;28;20588;-69
2022/04/09 06:04:52;;;;;;;3.43;1.83;;;;;5.00;100179.00;;;;4912314;29;20225;-68
2022/04/09 06:07:40;;;;;;;4.57;1.67;;;;;5.00;100185.00;;;;4911663;29;20238;-69
2022/04/09 06:10:26;;;;;;;2.93;1.50;;;;;5.00;100178.00;;;;4917188;28;20309;-68
2022/04/09 06:13:13;;;;;;;3.10;1.63;;;;;5.00;100185.00;;;;4913615;28;20870;-67
2022/04/09 06:16:00;;;;;;;3.80;1.50;;;;;5.20;100181.00;;;;4915570;29;20237;-69
2022/04/09 06:18:46;;;;;;;5.80;1.73;;;;;5.20;100189.00;;;;4911968;28;20229;-68
2022/04/09 06:21:33;;;;;;;3.47;1.70;;;;;5.20;100196.00;;;;4913152;28;20236;-69
2022/04/09 06:24:21;;;;;;;5.53;1.50;;;;;5.40;100209.00;;;;4922683;28;20233;-68
2022/04/09 06:27:07;;;;;;;6.80;1.40;;;;;5.40;100196.00;;;;4920812;28;20237;-68
2022/04/09 06:29:53;;;;;;;6.57;2.17;;;;;5.40;100209.00;;;;4928917;28;20247;-69
2022/04/09 06:32:40;;;;;;;4.63;1.70;;;;;5.50;100215.00;;;;4928380;28;20709;-68
2022/04/09 06:35:27;;;;;;;4.73;1.90;;;;;5.70;100189.00;;;;4926768;28;20856;-68
2022/04/09 06:38:13;;;;;;;4.40;1.80;;;;;6.10;100213.00;;;;4921885;28;20366;-67
2022/04/09 06:41:01;;;;;;;2.07;1.40;;;;;6.10;100221.00;;;;4918074;28;20233;-68
2022/04/09 06:43:47;;;;;;;4.57;1.93;;;;;6.50;100224.00;;;;4922591;28;20241;-67
2022/04/09 06:46:33;;;;;;;3.50;2.10;;;;;6.60;100219.00;;;;4908926;29;20369;-68
2022/04/09 06:49:20;;;;;;;4.23;1.50;;;;;6.60;100241.00;;;;4922820;28;20248;-67
2022/04/09 06:52:07;;;;;;;8.90;2.47;;;;;6.60;100237.00;;;;4919110;28;20217;-66
2022/04/09 06:54:55;;;;;;;4.73;1.60;;;;;6.50;100252.00;;;;4912214;29;20377;-67
2022/04/09 06:57:43;;;;;;;2.30;1.40;;;;;6.70;100254.00;;;;4924802;28;20729;-67
2022/04/09 07:00:30;;;;;;;4.30;2.07;;;;;6.50;100258.00;;;;4925118;28;20997;-66
2022/04/09 07:03:16;;;;;;;5.23;2.03;;;;;6.50;100266.00;;;;4922195;28;20232;-69
2022/04/09 07:06:02;;;;;;;3.87;1.70;;;;;6.70;100270.00;;;;4924945;28;20225;-70
2022/04/09 07:08:48;;;;;;;4.97;1.50;;;;;6.90;100276.00;;;;4919503;28;20232;-69
2022/04/09 07:11:35;;;;;;;7.97;2.20;;;;;6.90;100271.00;;;;4924344;28;20283;-68
2022/04/09 07:14:23;;;;;;;3.47;1.47;;;;;6.90;100284.00;;;;4922659;28;20240;-67
2022/04/09 07:17:10;;;;;;;1.40;1.30;;;;;6.90;100288.00;;;;4908867;29;20233;-69
2022/04/09 07:19:58;;;;;;;6.63;1.83;;;;;7.10;100288.00;;;;4924913;28;20229;-66
2022/04/09 07:22:45;;;;;;;5.40;1.90;;;;;7.10;100293.00;;;;4911280;29;20289;-68
2022/04/09 07:25:31;;;;;;;7.80;1.97;;;;;7.40;100298.00;;;;4912652;29;20229;-68
2022/04/09 07:28:17;;;;;;;5.47;1.90;;;;;7.30;100291.00;;;;4915278;29;20698;-68
2022/04/09 07:31:05;;;;;;;5.10;1.97;;;;;7.20;100303.00;;;;4913973;28;20224;-67
2022/04/09 07:33:51;;;;;;;1.83;1.30;;;;;7.00;100292.00;;;;4917524;28;20732;-67
2022/04/09 07:36:38;;;;;;;5.63;1.60;;;;;6.90;100297.00;;;;4910121;29;20236;-67
2022/04/09 07:39:24;;;;;;;7.13;1.93;;;;;6.90;100294.00;;;;4916800;28;20228;-69
2022/04/09 07:42:10;;;;;;;7.83;1.63;;;;;7.00;100299.00;;;;4920487;28;20241;-71
2022/04/09 07:44:57;;;;;;;7.43;2.00;;;;;7.20;100306.00;;;;4916701;28;20224;-69
2022/04/09 07:47:46;;;;;;;4.00;1.30;;;;;7.40;100298.00;;;;4913445;28;20240;-66
2022/04/09 07:50:33;;;;;;;3.27;1.43;;;;;7.50;100311.00;;;;4909017;29;20798;-68
2022/04/09 07:53:19;;;;;;;3.33;1.60;;;;;7.70;100318.00;;;;4922094;28;20300;-68
2022/04/09 07:56:06;;;;;;;6.60;1.90;;;;;7.90;100318.00;;;;4918942;28;20253;-67
2022/04/09 07:58:52;;;;;;;6.70;1.53;;;;;7.80;100325.00;;;;4910141;28;20385;-68
2022/04/09 08:01:38;;;;;;;3.17;1.37;;;;;8.00;100313.00;;;;4914220;28;20232;-68
2022/04/09 08:04:26;;;;;;;4.57;1.77;;;;;8.00;100324.00;;;;4922642;28;20718;-69
2022/04/09 08:07:12;;;;;;;2.20;1.60;;;;;7.90;100339.00;;;;4920422;28;20240;-70
2022/04/09 08:09:58;;;;;;;3.20;1.70;;;;;8.10;100324.00;;;;4927416;28;20228;-68
2022/04/09 08:12:48;;;;;;;4.93;1.70;;;;;8.30;100338.00;;;;4912341;29;20228;-68
2022/04/09 08:15:34;;;;;;;2.60;1.67;;;;;8.20;100347.00;;;;4931523;28;20362;-68
2022/04/09 08:18:20;;;;;;;6.00;1.83;;;;;8.10;100352.00;;;;4916212;28;20594;-67
2022/04/09 08:21:21;;;;;;;2.47;1.50;;;;;8.30;100343.00;;;;4912281;29;20320;-68
2022/04/09 08:24:09;;;;;;;2.00;1.40;;;;;8.30;100348.00;;;;4923886;28;20221;-67
2022/04/09 08:26:55;;;;;;;2.27;1.57;;;;;8.50;100355.00;;;;4930603;28;20329;-68
2022/04/09 08:29:41;;;;;;;2.70;1.60;;;;;8.50;100353.00;;;;4912649;29;20757;-67
2022/04/09 08:32:29;;;;;;;6.30;1.67;;;;;8.80;100348.00;;;;4917540;28;20381;-69
2022/04/09 08:35:15;;;;;;;2.50;1.43;;;;;8.80;100360.00;;;;4914815;29;20229;-68
2022/04/09 08:38:03;;;;;;;2.20;1.20;;;;;8.80;100359.00;;;;4914010;29;20341;-68
2022/04/09 08:40:50;;;;;;;1.47;1.10;;;;;8.60;100344.00;;;;4919269;29;20884;-68
2022/04/09 08:43:38;;;;;;;2.73;1.53;;;;;8.50;100345.00;;;;4913485;29;20224;-67
2022/04/09 08:46:27;;;;;;;2.37;1.50;;;;;8.50;100366.00;;;;4924908;28;20228;-69
2022/04/09 08:49:13;;;;;;;3.97;2.10;;;;;8.60;100368.00;;;;4924158;28;20344;-68
2022/04/09 08:51:59;;;;;;;2.13;1.30;;;;;8.70;100361.00;;;;4920062;28;20237;-67
2022/04/09 08:54:47;;;;;;;1.90;1.30;;;;;8.70;100353.00;;;;4911527;29;20238;-68
2022/04/09 08:57:35;;;;;;;6.43;1.70;;;;;8.60;100348.00;;;;4912991;29;20738;-70
2022/04/09 09:00:21;;;;;;;5.63;1.47;;;;;8.70;100351.00;;;;4924956;28;20224;-67
2022/04/09 09:03:15;;;;;;;2.30;1.40;;;;;8.80;100369.00;;;;4916396;28;20722;-69
2022/04/09 09:06:02;;;;;;;3.13;1.30;;;;;8.90;100371.00;;;;4926572;28;20236;-67
2022/04/09 09:08:48;;;;;;;1.20;1.10;;;;;8.90;100362.00;;;;4927710;28;20244;-68
2022/04/09 09:11:47;;;;;;;3.37;1.67;;;;;8.80;100363.00;;;;4930189;28;20784;-69
2022/04/09 09:14:36;;;;;;;2.67;1.20;;;;;8.90;100364.00;;;;4926748;28;20236;-69
2022/04/09 09:17:28;;;;;;;5.47;1.70;;;;;8.90;100371.00;;;;4929799;28;20232;-69
2022/04/09 09:20:14;;;;;;;5.63;1.40;;;;;8.90;100341.00;;;;4919529;28;20228;-68
2022/04/09 09:23:01;;;;;;;1.67;1.07;;;;;9.10;100383.00;;;;4926410;28;20254;-68
2022/04/09 09:25:49;;;;;;;4.27;1.80;;;;;9.20;100385.00;;;;4910639;29;20279;-67
2022/04/09 09:28:37;;;;;;;3.03;1.50;;;;;9.20;100381.00;;;;4926052;28;20252;-69
2022/04/09 09:31:42;;;;;;;5.13;1.53;;;;;9.30;100384.00;;;;4926857;28;20335;-69
2022/04/09 09:34:29;;;;;;;3.53;1.47;;;;;9.50;100385.00;;;;4912675;29;20241;-67
2022/04/09 09:37:22;;;;;;;5.60;2.07;;;;;9.60;100382.00;;;;4910520;29;20242;-68
2022/04/09 09:40:09;;;;;;;1.93;1.17;;;;;9.60;100395.00;;;;4919277;28;20304;-68
2022/04/09 09:43:13;;;;;;;2.33;1.20;;;;;9.30;100409.00;;;;4915045;29;20242;-69
2022/04/09 09:46:02;;;;;;;2.53;1.07;;;;;9.10;100421.00;;;;4914510;28;20382;-68
2022/04/09 09:48:51;;;;;;;1.80;1.50;;;;;9.40;100425.00;;;;4919325;28;20423;-68
2022/04/09 09:51:38;;;;;;;1.07;1.00;;;;;9.60;100430.00;;;;4924722;28;20236;-68
2022/04/09 09:54:24;;;;;;;4.67;0.97;;;;;9.90;100419.00;;;;4918429;28;20243;-69
2022/04/09 09:57:20;;;;;;;1.63;0.90;;;;;10.10;100427.00;;;;4917768;28;20328;-68
2022/04/09 10:00:10;;;;;;;1.07;1.00;;;;;10.20;100430.00;;;;4917081;28;20609;-68
2022/04/09 10:02:59;;;;;;;1.63;1.00;;;;;10.70;100428.00;;;;4923324;28;20242;-67
2022/04/09 10:05:48;;;;;;;0.90;0.90;;;;;10.90;100448.00;;;;4926317;28;20635;-67
2022/04/09 10:08:34;;;;;;;1.10;0.93;;;;;11.20;100431.00;;;;4926852;28;20887;-68
2022/04/09 10:11:22;;;;;;;0.93;0.93;;;;;11.10;100444.00;;;;4923458;28;20254;-69
2022/04/09 10:14:10;;;;;;;3.10;1.40;;;;;10.70;100449.00;;;;4922246;28;20361;-68
2022/04/09 10:16:58;;;;;;;1.20;1.10;;;;;10.20;100467.00;;;;4911889;28;20246;-69
2022/04/09 10:19:45;;;;;;;0.93;0.80;;;;;9.40;100505.00;;;;4911872;28;20324;-68
2022/04/09 10:22:35;;;;;;;2.30;0.90;;;;;8.60;100514.00;;;;4926034;28;20311;-67
2022/04/09 10:25:25;;;;;;;0.77;0.77;;;;;7.80;100523.00;;;;4924278;28;20242;-69
2022/04/09 10:28:13;;;;;;;0.70;0.70;;;;;7.10;100516.00;;;;4929983;28;20236;-71
2022/04/09 10:31:00;;;;;;;0.77;0.77;;;;;6.70;100515.00;;;;4926063;28;20347;-71
2022/04/09 10:33:53;;;;;;;0.70;0.70;;;;;6.80;100520.00;;;;4911430;29;20241;-66
2022/04/09 10:37:02;;;;;;;2.50;0.70;;;;;6.70;100493.00;;;;4914261;29;20234;-66
2022/04/09 10:39:53;;;;;;;0.60;0.60;;;;;6.50;100485.00;;;;4912186;29;20311;-64
2022/04/09 10:42:51;;;;;;;0.50;0.50;;;;;6.60;100494.00;;;;4909396;29;20370;-69
2022/04/09 10:46:18;;;;;;;2.23;0.60;;;;;6.60;100490.00;;;;4924931;28;20288;-68
2022/04/09 10:49:22;;;;;;;0.80;0.80;;;;;6.90;100494.00;;;;4915002;28;20236;-66
2022/04/09 10:52:14;;;;;;;1.13;0.70;;;;;7.10;100493.00;;;;4920890;28;20244;-66
2022/04/09 10:55:24;;;;;;;0.70;0.63;;;;;7.30;100502.00;;;;4928164;28;20245;-67
2022/04/09 10:58:11;;;;;;;0.80;0.53;;;;;7.70;100500.00;;;;4927966;28;20231;-68
2022/04/09 11:00:57;;;;;;;0.90;0.90;;;;;8.30;100497.00;;;;4925632;28;20218;-68
2022/04/09 11:03:43;;;;;;;2.67;1.07;;;;;8.90;100500.00;;;;4919718;29;20820;-69
2022/04/09 11:06:43;;;;;;;1.37;1.23;;;;;9.20;100494.00;;;;4928004;28;20304;-69
2022/04/09 11:09:45;;;;;;;2.50;1.53;;;;;9.60;100498.00;;;;4923094;28;20233;-69
2022/04/09 11:12:45;;;;;;;1.63;1.37;;;;;9.90;100506.00;;;;4924202;28;20236;-65
2022/04/09 11:15:32;;;;;;;2.37;1.50;;;;;10.10;100509.00;;;;4924182;28;20248;-68
2022/04/09 11:18:18;;;;;;;3.80;1.43;;;;;9.70;100494.00;;;;4911982;28;20305;-68
2022/04/09 11:21:13;;;;;;;1.57;1.20;;;;;9.60;100527.00;;;;4912047;29;20244;-68
2022/04/09 11:24:07;;;;;;;1.87;1.27;;;;;9.30;100536.00;;;;4911592;29;20232;-69
2022/04/09 11:26:56;;;;;;;1.47;1.17;;;;;8.40;100571.00;;;;4910952;29;20241;-69
2022/04/09 11:29:43;;;;;;;0.67;0.67;;;;;7.20;100579.00;;;;4910075;29;20732;-67
2022/04/09 11:32:32;;;;;;;0.57;0.57;;;;;6.80;100546.00;;;;4910001;29;20281;-68
2022/04/09 11:35:24;;;;;;;3.47;0.60;;;;;6.80;100586.00;;;;4923241;28;20332;-64
2022/04/09 11:38:11;;;;;;;0.87;0.70;;;;;6.80;100580.00;;;;4920138;28;20418;-67
2022/04/09 11:40:57;;;;;;;0.60;0.60;;;;;7.10;100572.00;;;;4917316;28;20853;-66
2022/04/09 11:43:47;;;;;;;0.70;0.70;;;;;7.20;100591.00;;;;4908432;29;20612;-70
2022/04/09 11:46:43;;;;;;;1.43;0.70;;;;;7.50;100575.00;;;;4907608;29;20257;-67
2022/04/09 11:49:30;;;;;;;1.60;0.93;;;;;7.90;100569.00;;;;4908664;29;20237;-69
2022/04/09 11:52:25;;;;;;;2.77;1.23;;;;;7.80;100565.00;;;;4921191;28;20308;-68
2022/04/09 11:55:14;;;;;;;1.73;1.30;;;;;8.20;100567.00;;;;4920592;28;20243;-65
2022/04/09 11:58:00;;;;;;;1.50;1.07;;;;;8.50;100567.00;;;;4921838;28;20268;-68
2022/04/09 12:00:48;;;;;;;0.60;0.60;;;;;9.00;100565.00;;;;4908218;29;20249;-67
2022/04/09 12:03:34;;;;;;;1.10;1.00;;;;;9.50;100573.00;;;;4914272;28;20320;-69
2022/04/09 12:06:21;;;;;;;1.20;1.10;;;;;9.90;100573.00;;;;4921528;28;20789;-68
2022/04/09 12:09:08;;;;;;;1.90;0.97;;;;;10.20;100575.00;;;;4919886;28;20239;-67
2022/04/09 12:11:55;;;;;;;1.87;0.90;;;;;10.40;100563.00;;;;4927429;28;20257;-67
2022/04/09 12:14:52;;;;;;;1.57;0.97;;;;;10.50;100571.00;;;;4916699;28;20293;-68
2022/04/09 12:17:40;;;;;;;2.20;1.10;;;;;10.50;100568.00;;;;4908875;29;20245;-67
2022/04/09 12:20:30;;;;;;;2.20;1.20;;;;;10.20;100564.00;;;;4924534;28;20256;-68
2022/04/09 12:23:28;;;;;;;0.90;0.87;;;;;9.70;100583.00;;;;4921251;28;20761;-66
2022/04/09 12:26:25;;;;;;;1.57;1.00;;;;;9.30;100592.00;;;;4920543;28;20721;-68
2022/04/09 12:29:14;;;;;;;0.70;0.70;;;;;8.90;100578.00;;;;4920088;28;20293;-68
2022/04/09 12:32:18;;;;;;;1.00;0.70;;;;;9.00;100575.00;;;;4926978;28;20831;-68
2022/04/09 12:35:08;;;;;;;2.57;0.90;;;;;9.40;100570.00;;;;4913867;29;20434;-68
2022/04/09 12:37:54;;;;;;;0.73;0.73;;;;;9.30;100570.00;;;;4924374;28;20251;-67
2022/04/09 12:40:40;;;;;;;1.60;0.87;;;;;9.10;100570.00;;;;4912851;28;20238;-69
2022/04/09 12:43:34;;;;;;;1.97;0.90;;;;;9.00;100567.00;;;;4919521;28;20775;-68
2022/04/09 12:46:21;;;;;;;1.07;1.00;;;;;9.60;100561.00;;;;4921174;28;21087;-66
2022/04/09 12:49:07;;;;;;;1.30;1.17;;;;;9.80;100572.00;;;;4917279;28;20788;-68
2022/04/09 12:51:56;;;;;;;1.00;1.00;;;;;9.70;100564.00;;;;4916827;28;20257;-69
2022/04/09 12:54:42;;;;;;;2.20;1.37;;;;;9.40;100575.00;;;;4926904;28;20240;-67
2022/04/09 12:57:29;;;;;;;1.30;1.20;;;;;9.80;100557.00;;;;4927016;28;20245;-67
2022/04/09 13:00:17;;;;;;;1.20;1.07;;;;;10.40;100589.00;;;;4919133;28;20317;-64
2022/04/09 13:03:03;;;;;;;1.07;0.97;;;;;10.40;100589.00;;;;4924392;28;20233;-71
2022/04/09 13:05:50;;;;;;;1.20;0.90;;;;;9.90;100589.00;;;;4924806;28;20760;-68
2022/04/09 13:08:38;;;;;;;0.70;0.70;;;;;9.70;100570.00;;;;4924649;28;20240;-67
2022/04/09 13:11:24;;;;;;;1.90;0.80;;;;;9.70;100579.00;;;;4925144;28;20779;-67
2022/04/09 13:14:10;;;;;;;0.70;0.70;;;;;9.70;100575.00;;;;4917830;28;20233;-68
2022/04/09 13:16:57;;;;;;;3.90;1.10;;;;;10.30;100572.00;;;;4912626;28;20812;-68
2022/04/09 13:19:43;;;;;;;2.97;0.80;;;;;10.40;100588.00;;;;4926633;28;20240;-68
2022/04/09 13:22:29;;;;;;;1.23;0.80;;;;;11.00;100580.00;;;;4929477;28;20234;-68
2022/04/09 13:25:19;;;;;;;1.40;0.80;;;;;11.70;100614.00;;;;4923667;28;20230;-70
2022/04/09 13:28:06;;;;;;;1.10;0.90;;;;;12.00;100572.00;;;;4914595;29;20311;-67
2022/04/09 13:30:53;;;;;;;1.93;0.77;;;;;11.90;100596.00;;;;4922695;28;20343;-70
2022/04/09 13:33:39;;;;;;;0.80;0.70;;;;;12.20;100596.00;;;;4924718;28;20246;-67
2022/04/09 13:36:26;;;;;;;1.23;0.90;;;;;12.50;100582.00;;;;4924422;28;20273;-69
2022/04/09 13:39:16;;;;;;;1.10;1.00;;;;;13.20;100602.00;;;;4923125;28;20232;-66
2022/04/09 13:42:17;;;;;;;7.83;1.30;;;;;12.00;100620.00;;;;4923298;28;20751;-68
2022/04/09 13:45:04;;;;;;;1.67;0.97;;;;;10.80;100652.00;;;;4920789;28;20233;-63
2022/04/09 13:47:52;;;;;;;1.17;0.77;;;;;10.30;100638.00;;;;4913811;29;20651;-67
2022/04/09 13:50:38;;;;;;;1.17;0.90;;;;;9.70;100661.00;;;;4910764;29;20241;-67
2022/04/09 13:53:24;;;;;;;0.80;0.80;;;;;9.50;100670.00;;;;4919721;28;20230;-68
2022/04/09 13:56:12;;;;;;;1.47;0.70;;;;;9.10;100665.00;;;;4928174;28;20239;-68
2022/04/09 13:58:59;;;;;;;0.60;0.60;;;;;9.10;100632.00;;;;4923462;28;20234;-68
2022/04/09 14:01:46;;;;;;;1.93;0.83;;;;;9.00;100628.00;;;;4917469;28;20237;-68
2022/04/09 14:04:37;;;;;;;0.70;0.70;;;;;9.30;100630.00;;;;4914066;28;20252;-68
2022/04/09 14:07:23;;;;;;;2.47;1.10;;;;;10.00;100622.00;;;;4923492;28;20318;-67
2022/04/09 14:10:10;;;;;;;0.67;0.67;;;;;10.80;100628.00;;;;4914659;28;20233;-67